createdAt,value
2019-05-20T05:11:45.043Z,13.88
2019-05-20T05:21:47.583Z,16.12
2019-05-20T05:31:44.990Z,17.62
2019-05-20T05:41:45.948Z,18.75
2019-05-20T05:51:45.045Z,19.12
2019-05-20T06:01:44.682Z,19.37
2019-05-20T06:11:45.072Z,19.75
2019-05-20T06:21:45.029Z,20.12
2019-05-20T06:31:46.859Z,20.37
2019-05-20T06:41:45.277Z,21.00
2019-05-20T06:51:45.022Z,21.50
2019-05-20T07:01:44.595Z,23.50
2019-05-20T07:11:52.647Z,24.63
2019-05-20T10:00:53.952Z,22.25
2019-05-20T10:10:53.723Z,20.75
2019-05-20T10:20:53.893Z,20.50
2019-05-20T10:30:52.632Z,20.88
2019-05-20T10:40:53.754Z,23.50
2019-05-20T10:50:53.348Z,25.88
2019-05-20T11:01:02.401Z,26.62
2019-05-20T11:10:54.073Z,26.62
2019-05-20T11:20:53.787Z,25.88
2019-05-20T11:30:55.480Z,25.37
2019-05-20T11:40:55.681Z,26.87
2019-05-20T11:50:54.832Z,26.87
2019-05-20T12:00:54.290Z,27.50
2019-05-20T12:10:55.573Z,27.87
2019-05-20T12:20:53.788Z,28.87
2019-05-20T12:30:56.440Z,29.25
2019-05-20T12:40:54.441Z,29.12
2019-05-20T12:50:56.248Z,29.63
2019-05-20T13:00:54.390Z,30.12
2019-05-20T13:10:55.883Z,31.12
2019-05-20T13:20:53.602Z,30.37
2019-05-20T13:30:54.422Z,30.37
2019-05-20T13:40:54.169Z,30.75
2019-05-20T13:50:55.859Z,29.63
2019-05-20T14:00:53.613Z,29.50
2019-05-20T14:11:03.590Z,28.87
2019-05-20T14:20:54.067Z,28.12
2019-05-20T14:30:53.608Z,28.12
2019-05-20T14:50:55.794Z,27.25
2019-05-20T15:00:54.065Z,27.00
2019-05-20T15:10:55.938Z,27.13
2019-05-20T15:20:53.761Z,27.62
2019-05-20T15:30:54.035Z,28.12
